Fort Thomson, Canada
Current Conditions -  °F | °C
As of 11:00 PM on Tuesday 25 Nov 2014 (Local Time) from CYCO Reporting Station
Light Snow Light Snow  
Wind Chill: -24°   Ceiling: 2500
Heat Index: -2°   Visibility: 5mi
Dew Point: -8°   Wind: 17mph
Humidity: 78%   Direction: 280°W
Pressure: 29.99"   Gusts: NA
Location:  68.78°N, 114.78°W
Report Text: CYCO 260600Z 28015KT 5SM -SN BLSN OVC025 M19/M22 A2999 RMK SC8SLP160
Loading
Personal Weather Stations






























Interactive Weather Map New forecast layout! Learn more

10-Day Weather Forecast

Advertisements
Track Severe Weather on mobile